Time;durP1;ratioP1;P1;durP2;ratioP2;P2;SDS_P1;SDS_P2;PMS_P1;PMS_P2;Temp;Humidity;BMP_temperature;BMP_pressure;BME280_temperature;BME280_humidity;BME280_pressure;Samples;Min_cycle;Max_cycle;Signal;HPM_P1;HPM_P2
2022/07/22 00:00:40;;;;;;;;;24.33;24.00;;;;;23.29;58.50;101510.72;5109526;27;45507;-77
2022/07/22 00:03:05;;;;;;;;;23.33;20.00;;;;;23.33;58.55;101527.53;5108707;27;45344;-74
2022/07/22 00:05:31;;;;;;;;;18.67;18.33;;;;;23.36;58.22;101526.53;5106376;27;46230;-74
2022/07/22 00:07:56;;;;;;;;;20.00;18.00;;;;;23.44;57.95;101524.44;5107228;27;45979;-76
2022/07/22 00:10:22;;;;;;;;;17.00;16.67;;;;;23.38;57.95;101525.56;5107197;27;46173;-74
2022/07/22 00:12:48;;;;;;;;;15.67;15.67;;;;;23.49;57.86;101525.09;5113743;27;45444;-70
2022/07/22 00:15:14;;;;;;;;;34.00;26.33;;;;;23.52;57.71;101527.69;5104473;27;45498;-74
2022/07/22 00:17:39;;;;;;;;;27.00;24.00;;;;;23.43;58.01;101522.69;5105704;27;45582;-73
2022/07/22 00:20:06;;;;;;;;;25.67;24.00;;;;;23.43;58.01;101526.22;5112327;27;45566;-73
2022/07/22 00:22:32;;;;;;;;;28.00;26.00;;;;;23.36;57.93;101523.88;5112461;27;46814;-75
2022/07/22 00:24:58;;;;;;;;;21.67;19.33;;;;;23.22;58.13;101509.22;5101739;27;45429;-70
2022/07/22 00:27:23;;;;;;;;;17.33;17.00;;;;;23.28;58.01;101516.16;5112381;27;45388;-72
2022/07/22 00:29:53;;;;;;;;;23.67;21.67;;;;;23.19;58.32;101509.34;5115461;27;45413;-75
2022/07/22 00:32:19;;;;;;;;;20.00;17.67;;;;;23.19;58.39;101514.69;5117228;27;45567;-72
2022/07/22 00:34:44;;;;;;;;;23.67;23.67;;;;;23.19;58.12;101517.38;5114963;27;45500;-73
2022/07/22 00:37:10;;;;;;;;;19.33;17.33;;;;;22.96;58.06;101493.28;5099855;27;45492;-74
2022/07/22 00:39:35;;;;;;;;;21.33;18.67;;;;;23.13;58.62;101517.59;5113603;27;45983;-74
2022/07/22 00:42:02;;;;;;;;;22.33;21.00;;;;;23.03;58.67;101498.38;5105505;27;45358;-75
2022/07/22 00:44:28;;;;;;;;;24.67;21.67;;;;;23.02;58.67;101493.09;5114547;27;45274;-72
2022/07/22 00:46:53;;;;;;;;;25.67;24.00;;;;;22.86;58.87;101476.75;5103549;27;45235;-75
2022/07/22 00:49:19;;;;;;;;;25.67;23.67;;;;;22.93;58.91;101510.31;5119722;27;45624;-74
2022/07/22 00:51:46;;;;;;;;;23.00;21.67;;;;;22.77;59.22;101495.78;5104536;27;45451;-73
2022/07/22 00:54:12;;;;;;;;;26.33;25.67;;;;;22.75;59.47;101494.97;5104500;27;45562;-74
2022/07/22 00:56:38;;;;;;;;;20.00;19.33;;;;;22.75;59.57;101490.47;5118449;27;45496;-74
2022/07/22 00:59:07;;;;;;;;;22.33;19.67;;;;;22.77;59.45;101495.78;5108810;27;46207;-74
2022/07/22 01:01:32;;;;;;;;;22.00;22.00;;;;;22.77;59.22;101491.28;5118551;27;45309;-74
2022/07/22 01:03:59;;;;;;;;;26.67;23.33;;;;;22.74;59.48;101486.09;5117628;27;45460;-73
2022/07/22 01:06:25;;;;;;;;;17.33;17.33;;;;;22.65;59.72;101487.28;5122528;27;45639;-73
2022/07/22 01:08:50;;;;;;;;;17.67;16.00;;;;;22.60;59.34;101464.34;5123548;27;46047;-72
2022/07/22 01:11:18;;;;;;;;;16.67;16.00;;;;;22.78;59.14;101487.72;5106102;27;45456;-71
2022/07/22 01:13:48;;;;;;;;;22.00;20.00;;;;;22.78;59.06;101486.81;5108639;27;45897;-72
2022/07/22 01:16:15;;;;;;;;;23.67;21.67;;;;;22.72;59.12;101487.06;5115752;27;45411;-73
2022/07/22 01:18:42;;;;;;;;;18.33;17.00;;;;;22.67;59.12;101495.25;5108728;27;46296;-75
2022/07/22 01:21:09;;;;;;;;;16.00;15.33;;;;;22.69;58.87;101487.19;5108842;27;45517;-74
2022/07/22 01:23:35;;;;;;;;;15.00;15.00;;;;;22.57;59.42;101472.50;5121241;27;45426;-76
2022/07/22 01:26:02;;;;;;;;;23.00;17.00;;;;;22.64;59.24;101482.03;5124141;27;45501;-76
2022/07/22 01:28:28;;;;;;;;;17.33;17.33;;;;;22.51;59.49;101467.34;5113966;27;45415;-75
2022/07/22 01:30:53;;;;;;;;;22.50;21.50;;;;;22.35;59.78;101465.25;5118186;27;45429;-76
2022/07/22 01:33:21;;;;;;;;;15.33;14.33;;;;;22.37;59.70;101462.50;5117156;27;45344;-75
2022/07/22 01:35:47;;;;;;;;;15.00;14.33;;;;;22.54;59.27;101481.47;5114815;27;45522;-73
2022/07/22 01:38:13;;;;;;;;;16.67;14.33;;;;;22.37;59.20;101446.50;5117880;27;46422;-74
2022/07/22 01:40:41;;;;;;;;;14.33;14.33;;;;;22.54;59.58;101483.25;5118087;27;45701;-74
2022/07/22 01:43:07;;;;;;;;;16.67;16.67;;;;;22.52;59.48;101479.75;5111922;27;45553;-74
2022/07/22 01:45:33;;;;;;;;;13.67;13.00;;;;;22.52;58.92;101471.75;5106283;27;45543;-75
2022/07/22 01:48:02;;;;;;;;;19.00;18.67;;;;;22.53;58.85;101457.50;5116351;27;45554;-73
2022/07/22 01:50:27;;;;;;;;;17.00;16.33;;;;;22.35;58.87;101432.34;5098793;27;45589;-73
2022/07/22 01:52:53;;;;;;;;;20.33;19.67;;;;;22.30;59.27;101451.19;5101569;27;45515;-75
2022/07/22 01:55:19;;;;;;;;;17.33;17.33;;;;;22.37;59.69;101473.19;5116342;27;45841;-74
2022/07/22 01:57:45;;;;;;;;;20.67;17.00;;;;;22.36;59.77;101471.47;5112966;27;46327;-75
2022/07/22 02:00:11;;;;;;;;;16.00;14.00;;;;;22.39;59.72;101474.88;5108086;27;45448;-75
2022/07/22 02:02:37;;;;;;;;;17.67;16.33;;;;;22.28;59.66;101470.84;5116627;27;45665;-74
2022/07/22 02:05:04;;;;;;;;;22.00;18.67;;;;;22.28;59.78;101468.16;5109735;27;45505;-75
2022/07/22 02:07:30;;;;;;;;;22.67;20.00;;;;;22.15;59.42;101446.38;5115616;27;46177;-76
2022/07/22 02:09:55;;;;;;;;;19.67;18.00;;;;;22.19;59.82;101462.22;5102688;27;45409;-74
2022/07/22 02:12:21;;;;;;;;;19.33;18.67;;;;;22.01;59.84;101442.38;5114319;27;45389;-74
2022/07/22 02:14:53;;;;;;;;;22.67;20.33;;;;;22.13;59.84;101462.41;5116570;27;45476;-75
2022/07/22 02:17:18;;;;;;;;;20.33;20.33;;;;;21.68;59.96;101398.19;5114667;27;47393;-71
2022/07/22 02:19:44;;;;;;;;;19.00;16.67;;;;;22.01;59.97;101471.72;5112606;27;45451;-75
2022/07/22 02:22:10;;;;;;;;;20.00;19.00;;;;;21.92;60.25;101466.69;5101835;27;45356;-74
2022/07/22 02:24:35;;;;;;;;;23.33;19.33;;;;;21.81;60.40;101451.06;5111765;27;45813;-74
2022/07/22 02:27:03;;;;;;;;;19.33;16.00;;;;;21.81;60.60;101469.72;5109484;27;45916;-75
2022/07/22 02:29:30;;;;;;;;;20.33;16.00;;;;;21.85;60.09;101464.28;5110173;27;45845;-69
2022/07/22 02:31:55;;;;;;;;;11.67;11.33;;;;;21.92;60.29;101469.34;5107954;27;45519;-74
2022/07/22 02:34:21;;;;;;;;;13.33;11.33;;;;;21.93;60.06;101457.78;5115755;27;45479;-74
2022/07/22 02:36:47;;;;;;;;;16.33;16.00;;;;;22.00;60.00;101464.63;5116182;27;45470;-76
2022/07/22 02:39:12;;;;;;;;;14.33;13.67;;;;;22.01;60.19;101468.16;5116261;27;45494;-76
2022/07/22 02:41:38;;;;;;;;;19.67;18.33;;;;;21.95;59.85;101458.59;5113523;27;45722;-75
2022/07/22 02:44:04;;;;;;;;;14.67;14.67;;;;;22.01;59.88;101476.19;5115853;27;45735;-73
2022/07/22 02:46:30;;;;;;;;;19.67;15.33;;;;;22.01;60.28;101469.03;5118856;27;45488;-73
2022/07/22 02:48:56;;;;;;;;;19.67;17.33;;;;;21.97;59.83;101467.44;5112271;27;45437;-75
2022/07/22 02:51:22;;;;;;;;;23.00;21.33;;;;;21.90;59.85;101462.31;5102654;27;45578;-76
2022/07/22 02:53:48;;;;;;;;;16.33;14.67;;;;;21.92;59.99;101469.34;5118264;27;45539;-74
2022/07/22 02:56:13;;;;;;;;;14.67;14.67;;;;;21.71;60.12;101438.97;5108890;27;46440;-74
2022/07/22 02:58:39;;;;;;;;;16.67;13.33;;;;;21.80;60.33;101459.09;5115474;27;45427;-72
2022/07/22 03:01:06;;;;;;;;;13.67;13.33;;;;;21.90;59.73;101457.88;5114395;27;45447;-69
2022/07/22 03:03:32;;;;;;;;;11.33;11.33;;;;;22.00;59.60;101458.44;5106324;27;45677;-70
2022/07/22 03:05:59;;;;;;;;;18.00;18.00;;;;;22.05;59.32;101458.28;5115398;27;45964;-72
2022/07/22 03:08:25;;;;;;;;;11.67;11.00;;;;;21.94;59.58;101448.84;5115204;27;45582;-70
2022/07/22 03:10:52;;;;;;;;;15.00;13.67;;;;;21.90;59.73;101457.88;5110581;27;45293;-69
2022/07/22 03:13:17;;;;;;;;;17.33;17.33;;;;;21.83;60.04;101456.34;5109697;27;45473;-71
2022/07/22 03:15:43;;;;;;;;;19.67;19.67;;;;;21.68;60.24;101443.50;5108806;27;47610;-75
2022/07/22 03:18:09;;;;;;;;;17.67;17.67;;;;;21.70;60.21;101453.19;5114398;27;45736;-73
2022/07/22 03:20:34;;;;;;;;;19.00;18.67;;;;;21.41;60.55;101424.84;5114106;27;45731;-73
2022/07/22 03:23:00;;;;;;;;;19.33;16.67;;;;;21.12;60.69;101381.31;5105329;27;45775;-71
2022/07/22 03:25:25;;;;;;;;;18.00;16.67;;;;;21.39;60.88;101426.66;5109453;27;45974;-74
2022/07/22 03:27:51;;;;;;;;;18.67;17.67;;;;;21.37;61.02;101434.69;5105221;27;45517;-74
2022/07/22 03:30:17;;;;;;;;;19.00;16.67;;;;;21.29;60.77;101419.88;5115155;27;45346;-75
2022/07/22 03:32:46;;;;;;;;;19.00;18.00;;;;;21.45;60.66;101447.81;5114017;27;46745;-75
2022/07/22 03:35:13;;;;;;;;;19.67;17.67;;;;;21.21;61.00;101417.44;5114434;27;46131;-75
2022/07/22 03:37:39;;;;;;;;;17.67;11.33;;;;;21.38;61.45;101455.09;5104594;27;45411;-74
2022/07/22 03:40:05;;;;;;;;;15.67;14.33;;;;;21.36;61.29;101459.59;5111087;27;45454;-73
2022/07/22 03:42:31;;;;;;;;;13.33;12.67;;;;;21.26;60.81;101427.94;5108658;27;45470;-75
2022/07/22 03:44:56;;;;;;;;;20.00;19.33;;;;;21.51;60.56;101454.72;5106926;27;47118;-76
2022/07/22 03:47:26;;;;;;;;;18.33;15.67;;;;;21.25;60.82;101426.22;5108166;27;45494;-77
2022/07/22 03:49:52;;;;;;;;;18.33;16.00;;;;;21.29;61.19;101452.72;5107290;27;45287;-76
2022/07/22 03:52:18;;;;;;;;;15.00;14.33;;;;;21.26;61.23;101436.84;5102122;27;45363;-76
2022/07/22 03:54:44;;;;;;;;;12.67;12.67;;;;;21.42;60.74;101455.03;5101987;27;46546;-74
2022/07/22 03:57:10;;;;;;;;;16.33;15.33;;;;;21.41;60.68;101448.81;5098958;27;45880;-76
2022/07/22 03:59:37;;;;;;;;;18.00;15.33;;;;;21.44;60.78;101456.72;5105778;27;45392;-75
2022/07/22 04:02:03;;;;;;;;;20.67;16.00;;;;;21.39;60.90;101454.19;5111679;27;45549;-74
2022/07/22 04:04:30;;;;;;;;;18.67;16.00;;;;;21.31;60.80;101452.69;5098281;27;45468;-76
2022/07/22 04:06:55;;;;;;;;;19.33;17.00;;;;;20.99;61.01;101395.94;5115142;27;45751;-75
2022/07/22 04:09:21;;;;;;;;;20.00;18.00;;;;;21.23;61.00;101444.91;5098663;27;45339;-73
2022/07/22 04:11:47;;;;;;;;;16.00;15.33;;;;;21.13;61.67;101430.13;5099850;27;45455;-76
2022/07/22 04:14:12;;;;;;;;;17.67;15.00;;;;;21.23;61.51;101454.69;5105322;27;47654;-77
2022/07/22 04:16:38;;;;;;;;;15.33;15.33;;;;;21.26;61.33;101446.59;5102489;27;45393;-70
2022/07/22 04:19:04;;;;;;;;;16.00;16.00;;;;;21.28;61.29;101442.09;5106315;27;45311;-71
2022/07/22 04:21:30;;;;;;;;;13.00;12.00;;;;;21.29;61.14;101433.19;5114269;27;45674;-69
2022/07/22 04:23:56;;;;;;;;;14.00;14.00;;;;;21.57;60.46;101455.41;5094736;27;46019;-67
2022/07/22 04:26:24;;;;;;;;;13.67;12.33;;;;;21.64;59.75;101432.09;5101037;27;45395;-78
2022/07/22 04:28:50;;;;;;;;;15.00;11.33;;;;;21.79;59.81;101442.22;5113476;27;45923;-74
2022/07/22 04:31:15;;;;;;;;;12.67;12.00;;;;;21.97;59.17;101440.75;5113270;27;45442;-70
2022/07/22 04:33:41;;;;;;;;;13.33;12.67;;;;;22.14;58.46;101439.25;5104557;27;45952;-72
2022/07/22 04:36:07;;;;;;;;;13.00;12.00;;;;;22.15;58.06;101417.03;5097695;27;45486;-73
2022/07/22 04:38:33;;;;;;;;;13.67;12.00;;;;;22.26;57.92;101427.31;5097534;27;45448;-73
2022/07/22 04:40:58;;;;;;;;;11.00;10.67;;;;;22.26;57.56;101414.88;5096874;27;45656;-71
2022/07/22 04:43:24;;;;;;;;;13.00;12.67;;;;;22.20;57.31;101391.03;5100393;27;45959;-69
2022/07/22 04:45:50;;;;;;;;;16.00;12.67;;;;;22.27;57.26;101408.59;5110218;27;45404;-74
2022/07/22 04:48:17;;;;;;;;;12.33;12.33;;;;;22.32;57.03;101430.66;5112403;27;45375;-70
2022/07/22 04:50:43;;;;;;;;;13.67;11.67;;;;;22.42;57.41;101437.41;5103035;27;45700;-68
2022/07/22 04:53:09;;;;;;;;;23.33;20.67;;;;;22.38;57.24;101432.25;5102769;27;45560;-71
2022/07/22 04:55:35;;;;;;;;;17.33;16.00;;;;;22.27;57.03;101410.41;5109335;27;45673;-70
2022/07/22 04:58:00;;;;;;;;;18.00;12.67;;;;;22.25;57.30;101412.25;5105425;27;45369;-68
2022/07/22 05:00:26;;;;;;;;;11.00;10.33;;;;;22.29;57.34;101430.78;5112953;27;45448;-70
2022/07/22 05:02:52;;;;;;;;;14.00;13.00;;;;;22.21;57.49;101420.38;5109081;27;46405;-68
2022/07/22 05:05:17;;;;;;;;;16.67;16.33;;;;;22.16;57.66;101408.06;5099647;27;45468;-72
2022/07/22 05:07:43;;;;;;;;;21.00;18.00;;;;;22.22;57.25;101407.91;5098417;27;45348;-69
2022/07/22 05:10:09;;;;;;;;;16.33;15.33;;;;;22.13;57.27;101402.84;5114085;27;45929;-73
2022/07/22 05:12:35;;;;;;;;;18.00;15.33;;;;;22.12;57.25;101394.00;5112259;27;45631;-72
2022/07/22 05:15:02;;;;;;;;;16.00;12.00;;;;;22.19;57.36;101411.53;5113246;27;45537;-73
2022/07/22 05:17:28;;;;;;;;;15.33;15.33;;;;;22.27;56.93;101416.59;5103387;27;45444;-72
2022/07/22 05:19:53;;;;;;;;;8.33;8.33;;;;;22.33;57.13;101419.06;5111768;27;45443;-73
2022/07/22 05:22:19;;;;;;;;;14.00;14.00;;;;;22.06;56.93;101361.31;5113172;27;45983;-74
2022/07/22 05:24:45;;;;;;;;;13.00;12.67;;;;;22.41;56.87;101413.44;5110240;27;45434;-69
2022/07/22 05:27:11;;;;;;;;;16.67;15.00;;;;;22.51;56.58;101416.63;5108190;27;45802;-69
2022/07/22 05:29:37;;;;;;;;;16.00;13.67;;;;;22.47;56.40;101391.88;5102322;27;45448;-74
2022/07/22 05:32:03;;;;;;;;;21.00;17.33;;;;;22.55;56.04;101383.56;5111371;27;46816;-68
2022/07/22 05:34:32;;;;;;;;;18.00;16.33;;;;;22.73;55.99;101409.59;5104497;27;45357;-72
2022/07/22 05:36:58;;;;;;;;;17.67;15.67;;;;;22.70;55.68;101412.34;5114246;27;45471;-73
2022/07/22 05:39:55;;;;;;;;;19.33;14.00;;;;;22.69;55.80;101413.28;5113298;27;45574;-71
2022/07/22 05:42:20;;;;;;;;;15.00;15.00;;;;;22.74;55.72;101397.97;5074258;27;47813;-73
2022/07/22 05:44:47;;;;;;;;;12.00;12.00;;;;;22.82;55.28;101403.00;5114860;27;45543;-75
2022/07/22 05:47:22;;;;;;;;;11.00;11.00;;;;;22.99;54.98;101399.69;5113046;27;45510;-72
2022/07/22 05:50:10;;;;;;;;;12.00;12.00;;;;;23.16;54.75;101405.25;5102778;27;45702;-75
2022/07/22 05:53:46;;;;;;;;;11.00;11.00;;;;;23.24;54.40;101397.78;5102254;27;46153;-71
2022/07/22 05:56:12;;;;;;;;;15.00;14.33;;;;;23.48;54.26;101405.75;5105666;27;45734;-73
2022/07/22 05:58:38;;;;;;;;;14.33;12.67;;;;;23.54;53.54;101399.25;5091347;27;46574;-73
2022/07/22 06:01:04;;;;;;;;;12.33;10.67;;;;;23.41;54.01;101380.19;5096017;27;45270;-72
2022/07/22 06:03:30;;;;;;;;;11.33;11.33;;;;;23.58;53.50;101399.06;5100669;27;46816;-68
2022/07/22 06:05:56;;;;;;;;;13.67;11.67;;;;;23.50;53.50;101372.66;5105739;27;45435;-71
2022/07/22 06:08:21;;;;;;;;;13.67;13.00;;;;;23.60;53.45;101393.69;5099028;27;45213;-72
2022/07/22 06:10:47;;;;;;;;;9.00;9.00;;;;;23.61;53.56;101382.94;5095737;27;45544;-71
2022/07/22 06:13:13;;;;;;;;;13.33;12.33;;;;;23.47;53.24;101348.75;5095405;27;45325;-74
2022/07/22 06:15:39;;;;;;;;;11.33;11.33;;;;;23.74;53.04;101390.44;5096890;27;45514;-72
2022/07/22 06:18:05;;;;;;;;;15.33;14.67;;;;;23.67;53.48;101396.03;5100979;27;45289;-75
2022/07/22 06:20:31;;;;;;;;;16.00;15.67;;;;;23.57;53.06;101405.38;5105969;27;45488;-73
2022/07/22 06:22:56;;;;;;;;;15.67;14.33;;;;;23.61;53.54;101411.44;5114761;27;46499;-74
2022/07/22 06:25:22;;;;;;;;;12.33;12.33;;;;;23.58;52.94;101382.16;5095369;27;45622;-74
2022/07/22 06:27:47;;;;;;;;;15.00;13.00;;;;;23.50;52.89;101375.34;5097811;27;45366;-72
2022/07/22 06:30:16;;;;;;;;;11.33;11.33;;;;;23.65;53.21;101397.88;5108151;27;45553;-67
2022/07/22 06:32:42;;;;;;;;;13.33;12.33;;;;;23.67;52.65;101365.75;5114321;27;45552;-74
2022/07/22 06:35:07;;;;;;;;;13.67;12.33;;;;;24.09;52.26;101394.28;5104493;27;45578;-73
2022/07/22 06:37:33;;;;;;;;;12.00;12.00;;;;;24.22;51.88;101399.94;5110521;27;45533;-75
2022/07/22 06:39:59;;;;;;;;;17.67;12.00;;;;;24.42;51.57;101405.28;5100295;27;45906;-71
2022/07/22 06:42:24;;;;;;;;;12.33;11.00;;;;;24.44;51.26;101397.16;5094479;27;46114;-74
2022/07/22 06:45:02;;;;;;;;;13.00;13.00;;;;;24.43;51.38;101406.16;5087677;27;46107;-69
2022/07/22 06:47:49;;;;;;;;;19.33;18.00;;;;;24.04;51.38;101348.13;5098360;27;45747;-70
2022/07/22 06:50:15;;;;;;;;;18.33;18.33;;;;;24.15;51.38;101390.44;5101699;27;46992;-73
2022/07/22 06:52:57;;;;;;;;;14.67;14.33;;;;;23.88;52.53;101404.09;5100657;27;46014;-72
2022/07/22 06:55:23;;;;;;;;;14.67;14.00;;;;;23.88;52.21;101396.94;5096255;27;45622;-74
2022/07/22 06:57:52;;;;;;;;;14.00;12.33;;;;;24.06;52.37;101416.69;5098798;27;45866;-76
2022/07/22 07:00:25;;;;;;;;;12.67;12.67;;;;;23.89;52.01;101352.31;5096424;27;45401;-71
2022/07/22 07:02:52;;;;;;;;;15.67;12.00;;;;;24.34;51.65;101407.41;5107438;27;46880;-74
2022/07/22 07:05:29;;;;;;;;;16.00;12.67;;;;;24.21;51.09;101375.00;5106363;27;45500;-73
2022/07/22 07:08:07;;;;;;;;;13.00;12.33;;;;;24.55;51.11;101402.94;5100530;27;45525;-73
2022/07/22 07:10:42;;;;;;;;;14.67;13.00;;;;;24.90;50.62;101414.69;5098895;27;45456;-74
2022/07/22 07:13:22;;;;;;;;;14.00;14.00;;;;;24.92;50.83;101407.47;5096794;27;45779;-76
2022/07/22 07:16:15;;;;;;;;;17.00;15.00;;;;;24.88;50.99;101410.34;5102345;27;45325;-72
2022/07/22 07:18:43;;;;;;;;;23.33;18.33;;;;;24.76;50.53;101403.75;5115558;27;45678;-75
2022/07/22 07:21:20;;;;;;;;;19.00;17.00;;;;;24.70;51.20;101390.63;5119255;27;45593;-72
2022/07/22 07:23:56;;;;;;;;;24.67;20.00;;;;;24.54;50.84;101379.78;5106164;27;47837;-73
2022/07/22 07:26:23;;;;;;;;;22.00;22.00;;;;;24.46;51.44;101393.50;5117945;27;45741;-74
2022/07/22 07:29:31;;;;;;;;;22.67;19.33;;;;;24.51;51.28;101402.22;5088613;27;45481;-71
2022/07/22 07:31:57;;;;;;;;;22.33;19.33;;;;;24.43;51.25;101385.59;5069289;27;45512;-70
2022/07/22 07:34:24;;;;;;;;;18.67;15.00;;;;;24.50;51.49;101375.50;5070414;28;45568;-73
2022/07/22 07:36:50;;;;;;;;;20.67;18.67;;;;;24.56;51.03;101377.91;5071601;28;46072;-72
2022/07/22 07:39:16;;;;;;;;;19.00;17.67;;;;;24.63;50.98;101395.44;5071549;27;45912;-70
2022/07/22 07:41:45;;;;;;;;;22.33;17.00;;;;;24.66;50.96;101383.72;5070571;27;45531;-73
2022/07/22 07:44:10;;;;;;;;;21.33;16.67;;;;;24.56;51.33;101367.19;5069379;28;45711;-72
2022/07/22 07:46:38;;;;;;;;;16.33;16.00;;;;;24.30;51.17;101322.88;5071159;28;45627;-74
2022/07/22 07:49:12;;;;;;;;;15.33;12.67;;;;;24.63;50.95;101375.78;5063473;28;45554;-75
2022/07/22 07:51:38;;;;;;;;;15.67;15.67;;;;;24.76;51.19;101393.91;5056808;28;45476;-77
2022/07/22 07:54:04;;;;;;;;;15.33;15.33;;;;;25.03;50.61;101398.88;5070468;27;45743;-77
2022/07/22 07:56:33;;;;;;;;;17.67;13.00;;;;;25.01;49.82;101341.84;5073465;27;45830;-73
2022/07/22 07:59:00;;;;;;;;;12.33;12.33;;;;;25.55;49.51;101400.84;5069787;27;46604;-75
2022/07/22 08:01:26;;;;;;;;;12.33;11.67;;;;;25.45;48.82;101343.28;5069667;27;46826;-73
2022/07/22 08:03:52;;;;;;;;;13.00;12.67;;;;;25.75;48.74;101376.59;5067463;28;45562;-76
2022/07/22 08:06:18;;;;;;;;;23.33;19.00;;;;;25.71;48.84;101393.78;5069253;28;45335;-76
2022/07/22 08:08:43;;;;;;;;;22.67;20.67;;;;;25.29;49.48;101354.75;5070254;27;45848;-75
2022/07/22 08:11:09;;;;;;;;;27.67;22.67;;;;;25.30;49.67;101399.41;5069513;28;45727;-75
2022/07/22 08:13:34;;;;;;;;;21.67;19.67;;;;;25.35;49.81;101394.69;5070319;27;45520;-76
2022/07/22 08:16:00;;;;;;;;;16.33;16.33;;;;;25.39;49.25;101388.22;5073136;28;45407;-73
2022/07/22 08:18:27;;;;;;;;;18.00;17.00;;;;;25.34;49.50;101382.22;5069594;28;45480;-75
2022/07/22 08:20:53;;;;;;;;;19.00;13.67;;;;;25.33;49.68;101359.03;5069851;28;45738;-76
2022/07/22 08:23:19;;;;;;;;;18.00;15.67;;;;;25.45;49.54;101378.13;5055645;28;45371;-77
2022/07/22 08:25:44;;;;;;;;;18.67;16.00;;;;;25.55;49.52;101380.25;5070266;28;45556;-76
2022/07/22 08:28:10;;;;;;;;;22.00;20.00;;;;;25.54;49.62;101375.84;5078161;27;45536;-75
2022/07/22 08:30:36;;;;;;;;;18.00;17.33;;;;;25.40;49.90;101359.59;5090491;27;45720;-78
2022/07/22 08:33:02;;;;;;;;;21.00;17.67;;;;;25.44;50.22;101369.22;5089794;27;45634;-76
2022/07/22 08:35:28;;;;;;;;;21.00;17.67;;;;;25.41;50.21;101366.69;5091938;27;45524;-76
2022/07/22 08:37:53;;;;;;;;;17.67;16.67;;;;;25.42;49.67;101370.25;5090452;27;45296;-76
2022/07/22 08:40:20;;;;;;;;;18.00;15.00;;;;;25.40;49.83;101356.91;5078486;27;45810;-77
2022/07/22 08:42:47;;;;;;;;;19.00;16.00;;;;;25.43;50.08;101343.34;5078392;27;45546;-77
2022/07/22 08:45:14;;;;;;;;;13.33;13.33;;;;;25.67;49.53;101381.44;5074905;27;45547;-76
2022/07/22 08:47:40;;;;;;;;;12.00;11.33;;;;;25.49;49.44;101318.91;5074993;27;45987;-75
2022/07/22 08:50:06;;;;;;;;;21.33;18.33;;;;;25.70;49.15;101330.34;5075971;28;45406;-76
2022/07/22 08:52:31;;;;;;;;;22.00;20.00;;;;;25.81;49.72;101360.16;5074790;27;45635;-75
2022/07/22 08:54:57;;;;;;;;;24.33;22.00;;;;;25.81;49.94;101351.22;5057635;28;46438;-71
2022/07/22 08:57:23;;;;;;;;;22.00;22.00;;;;;25.75;49.63;101330.09;5065765;27;45296;-75
2022/07/22 08:59:56;;;;;;;;;21.67;19.33;;;;;25.84;49.12;101332.31;5075831;28;45360;-76
2022/07/22 09:02:24;;;;;;;;;25.67;24.00;;;;;25.80;49.45;101318.19;5075147;27;45564;-73
2022/07/22 09:04:56;;;;;;;;;26.67;23.00;;;;;25.54;49.54;101279.31;5075670;28;46159;-74
2022/07/22 09:07:37;;;;;;;;;21.67;21.00;;;;;25.74;49.82;101286.28;5074931;28;46258;-76
2022/07/22 09:10:14;;;;;;;;;19.00;17.67;;;;;25.77;49.77;101278.09;5075671;27;45534;-72
2022/07/22 09:12:58;;;;;;;;;25.33;23.00;;;;;25.76;49.72;101292.44;5070907;27;45372;-73
2022/07/22 09:15:36;;;;;;;;;25.00;21.33;;;;;25.67;50.20;101297.44;5062775;28;45390;-73
2022/07/22 09:18:04;;;;;;;;;20.00;19.67;;;;;25.50;49.83;101285.75;5061639;28;45468;-74
2022/07/22 09:20:30;;;;;;;;;24.33;22.67;;;;;25.62;49.75;101311.09;5076266;28;45432;-74
2022/07/22 09:22:56;;;;;;;;;21.33;17.33;;;;;25.67;49.95;101308.16;5068751;28;46207;-74
2022/07/22 09:25:32;;;;;;;;;17.00;16.33;;;;;25.99;49.51;101342.25;5075930;27;45511;-71
2022/07/22 09:28:06;;;;;;;;;15.67;15.33;;;;;26.21;49.43;101349.16;5075371;28;45675;-74
2022/07/22 09:30:35;;;;;;;;;18.00;18.00;;;;;26.21;49.28;101349.16;5078903;28;45570;-75
2022/07/22 09:33:02;;;;;;;;;16.67;16.67;;;;;26.41;48.64;101351.66;5075432;28;45724;-73
2022/07/22 09:35:28;;;;;;;;;18.33;18.33;;;;;26.51;49.00;101349.31;5057755;28;45540;-74
2022/07/22 09:37:56;;;;;;;;;17.67;17.67;;;;;26.57;48.44;101345.44;5076440;28;46062;-76
2022/07/22 09:40:34;;;;;;;;;23.33;20.00;;;;;26.52;48.37;101340.28;5075684;28;45574;-76
2022/07/22 09:43:11;;;;;;;;;19.00;18.00;;;;;26.49;48.49;101334.25;5075437;27;45319;-72
2022/07/22 09:45:46;;;;;;;;;18.67;17.00;;;;;26.17;49.06;101292.09;5075807;28;45663;-74
2022/07/22 09:48:12;;;;;;;;;18.33;18.33;;;;;26.43;49.09;101324.69;5077596;28;45426;-75
2022/07/22 09:50:38;;;;;;;;;21.33;17.33;;;;;26.60;48.87;101332.72;5075209;28;45572;-73
2022/07/22 09:53:04;;;;;;;;;18.67;17.67;;;;;26.80;48.62;101330.72;5077436;28;45574;-76
2022/07/22 09:55:33;;;;;;;;;22.67;18.33;;;;;26.93;48.37;101341.63;5061260;28;45573;-70
2022/07/22 09:57:59;;;;;;;;;21.00;21.00;;;;;26.64;48.18;101277.84;5076601;27;46212;-73
2022/07/22 10:00:27;;;;;;;;;19.33;17.67;;;;;26.96;47.94;101331.59;5076815;28;45477;-75
2022/07/22 10:02:58;;;;;;;;;20.33;18.33;;;;;26.82;48.45;101329.69;5076685;28;45257;-73
2022/07/22 10:05:33;;;;;;;;;19.33;18.33;;;;;26.83;48.53;101330.53;5076148;27;45543;-75
2022/07/22 10:08:00;;;;;;;;;21.67;21.00;;;;;26.69;48.08;101328.63;5080148;27;45595;-76
2022/07/22 10:10:28;;;;;;;;;19.33;17.67;;;;;26.44;48.77;101324.59;5079049;27;45994;-71
2022/07/22 10:12:56;;;;;;;;;20.67;20.67;;;;;26.35;49.01;101311.69;5056796;28;45482;-71
2022/07/22 10:15:23;;;;;;;;;22.67;18.33;;;;;26.44;49.54;101321.91;5073465;28;45458;-73
2022/07/22 10:17:53;;;;;;;;;14.33;14.33;;;;;26.38;49.63;101303.44;5076078;28;45474;-70
2022/07/22 10:20:25;;;;;;;;;22.33;22.33;;;;;26.45;49.49;101320.97;5058961;28;45416;-69
2022/07/22 10:22:57;;;;;;;;;19.00;18.67;;;;;26.39;49.52;101323.13;5064334;28;45430;-69
2022/07/22 10:25:25;;;;;;;;;18.67;18.00;;;;;26.35;49.10;101321.56;5072150;28;45488;-70
2022/07/22 10:28:04;;;;;;;;;23.33;18.33;;;;;26.15;50.10;101301.16;5056234;28;46918;-75
2022/07/22 10:30:34;;;;;;;;;18.33;18.33;;;;;26.18;50.57;101306.38;5075922;27;45394;-72
2022/07/22 10:33:09;;;;;;;;;21.33;19.67;;;;;26.10;50.81;101296.06;5057188;28;45420;-74
2022/07/22 10:35:57;;;;;;;;;25.33;25.33;;;;;25.94;50.72;101290.66;5074079;28;45532;-75
2022/07/22 10:38:25;;;;;;;;;23.33;21.33;;;;;25.85;50.30;101303.66;5067764;27;46194;-74
2022/07/22 10:40:59;;;;;;;;;21.33;21.33;;;;;25.69;51.13;101282.13;5079287;27;45425;-74
2022/07/22 10:43:44;;;;;;;;;20.67;19.67;;;;;25.69;51.46;101285.66;5057590;27;45469;-75
2022/07/22 10:46:10;;;;;;;;;29.00;22.67;;;;;25.53;53.94;101260.59;5074789;27;45516;-72
2022/07/22 10:48:36;;;;;;;;;24.00;21.67;;;;;25.44;54.92;101239.63;5056037;28;46191;-74
2022/07/22 10:51:06;;;;;;;;;26.33;25.33;;;;;25.31;55.70;101204.56;5073390;27;45592;-75
2022/07/22 10:53:54;;;;;;;;;24.00;21.00;;;;;25.24;55.97;101201.31;5076722;27;45469;-75
2022/07/22 10:56:32;;;;;;;;;26.00;23.67;;;;;25.20;55.15;101186.38;5063419;27;45330;-74
2022/07/22 10:59:14;;;;;;;;;26.67;26.67;;;;;25.23;56.97;101206.78;5054128;28;46450;-75
2022/07/22 11:01:50;;;;;;;;;25.33;24.33;;;;;25.18;56.90;101231.13;5044880;28;45592;-74
2022/07/22 11:04:24;;;;;;;;;30.00;28.67;;;;;25.16;56.52;101228.50;5070301;27;45271;-75
2022/07/22 11:06:55;;;;;;;;;30.00;29.33;;;;;25.18;56.51;101215.06;5074229;28;45413;-73
2022/07/22 11:09:23;;;;;;;;;28.00;26.33;;;;;25.18;57.54;101199.84;5076115;27;46551;-76
2022/07/22 11:11:52;;;;;;;;;40.33;33.67;;;;;25.23;56.73;101182.66;5074909;28;45521;-74
2022/07/22 11:14:26;;;;;;;;;34.33;32.33;;;;;25.36;55.81;101184.59;5073340;27;45382;-75